Oakdale, Minnesota
Current Conditions -  °F | °C
As of 9:10 AM on Sunday 21 Dec 2014 (Local Time) from K21D Reporting Station
Unknown Precip Unknown Precip  
Wind Chill: 25°   Ceiling: 300
Heat Index: 34°   Visibility: 1.7mi
Dew Point: 34°   Wind: 12mph
Humidity: 100%   Direction: 160°SSE
Pressure: 29.9"   Gusts: NA
Location:  44.97°N, 92.96°W
Report Text: K21D 211510Z AUTO 16010KT 1 3/4SM UP OVC003 01/01 A2990 RMK AO2
Loading
Personal Weather Stations






























Interactive Weather Map New forecast layout! Learn more

10-Day Weather Forecast

Advertisements
Track Severe Weather on mobile